Time;durP1;ratioP1;P1;durP2;ratioP2;P2;SDS_P1;SDS_P2;PMS_P1;PMS_P2;Temp;Humidity;BMP_temperature;BMP_pressure;BME280_temperature;BME280_humidity;BME280_pressure;Samples;Min_cycle;Max_cycle;Signal;HPM_P1;HPM_P2
2022/04/07 00:01:17;;;;;;;;;;;9.60;99.90;;;;;;5022141;28;19936;-76
2022/04/07 00:03:43;;;;;;;;;;;9.50;99.90;;;;;;5027615;28;19933;-76
2022/04/07 00:06:10;;;;;;;;;;;9.60;99.90;;;;;;5021933;28;20300;-76
2022/04/07 00:08:37;;;;;;;;;;;9.60;99.90;;;;;;5025854;28;19983;-79
2022/04/07 00:11:03;;;;;;;;;;;9.50;99.90;;;;;;5015246;28;20408;-76
2022/04/07 00:13:30;;;;;;;;;;;9.50;99.90;;;;;;5021153;28;20008;-76
2022/04/07 00:15:58;;;;;;;;;;;9.50;99.90;;;;;;5019389;28;20457;-76
2022/04/07 00:18:25;;;;;;;;;;;9.60;99.90;;;;;;5014245;28;19929;-76
2022/04/07 00:20:52;;;;;;;;;;;9.60;99.90;;;;;;5027687;28;19931;-76
2022/04/07 00:23:18;;;;;;;;;;;9.60;99.90;;;;;;5019114;28;19940;-76
2022/04/07 00:25:45;;;;;;;;;;;9.60;99.90;;;;;;5026594;28;19929;-76
2022/04/07 00:28:11;;;;;;;;;;;9.60;99.90;;;;;;5024084;28;19925;-76
2022/04/07 00:30:39;;;;;;;;;;;9.60;99.90;;;;;;5017438;28;19925;-79
2022/04/07 00:33:06;;;;;;;;;;;9.60;99.90;;;;;;5028326;28;19933;-76
2022/04/07 00:35:32;;;;;;;;;;;9.50;99.90;;;;;;5025171;28;19925;-76
2022/04/07 00:37:59;;;;;;;;;;;9.50;99.90;;;;;;5011463;28;19929;-75
2022/04/07 00:40:25;;;;;;;;;;;9.60;99.90;;;;;;5024613;28;19925;-76
2022/04/07 00:42:52;;;;;;;;;;;9.50;99.90;;;;;;5015376;28;19929;-75
2022/04/07 00:45:18;;;;;;;;;;;9.40;99.90;;;;;;5019352;28;19925;-75
2022/04/07 00:47:45;;;;;;;;;;;9.40;99.90;;;;;;5018076;28;20364;-76
2022/04/07 00:50:12;;;;;;;;;;;9.30;99.90;;;;;;5026892;28;19925;-75
2022/04/07 00:52:38;;;;;;;;;;;9.30;99.90;;;;;;5020414;28;19935;-75
2022/04/07 00:55:05;;;;;;;;;;;9.30;99.90;;;;;;5014227;28;19926;-75
2022/04/07 00:57:31;;;;;;;;;;;9.20;99.90;;;;;;5021204;28;19925;-75
2022/04/07 00:59:58;;;;;;;;;;;9.30;99.90;;;;;;5018289;28;19956;-75
2022/04/07 01:02:24;;;;;;;;;;;9.20;99.90;;;;;;5021850;28;20369;-76
2022/04/07 01:04:51;;;;;;;;;;;9.20;99.90;;;;;;5014670;28;19929;-75
2022/04/07 01:07:18;;;;;;;;;;;9.20;99.90;;;;;;5026747;28;19925;-75
2022/04/07 01:09:44;;;;;;;;;;;9.20;99.90;;;;;;5019851;28;19930;-78
2022/04/07 01:12:11;;;;;;;;;;;9.20;99.90;;;;;;5027017;28;19925;-76
2022/04/07 01:14:37;;;;;;;;;;;9.20;99.90;;;;;;5021757;28;20384;-76
2022/04/07 01:17:04;;;;;;;;;;;9.20;99.90;;;;;;5018437;28;20508;-76
2022/04/07 01:19:30;;;;;;;;;;;9.10;99.90;;;;;;5017108;28;19925;-76
2022/04/07 01:21:57;;;;;;;;;;;9.20;99.90;;;;;;5007331;28;19925;-76
2022/04/07 01:24:23;;;;;;;;;;;9.20;99.90;;;;;;5021065;28;20352;-76
2022/04/07 01:26:50;;;;;;;;;;;9.20;99.90;;;;;;5041033;28;19937;-76
2022/04/07 01:29:19;;;;;;;;;;;9.20;99.90;;;;;;5012541;28;19925;-76
2022/04/07 01:31:45;;;;;;;;;;;9.20;99.90;;;;;;5025068;28;20380;-78
2022/04/07 01:34:12;;;;;;;;;;;9.10;99.90;;;;;;5026581;28;19925;-76
2022/04/07 01:36:38;;;;;;;;;;;9.00;99.90;;;;;;5029124;28;19929;-75
2022/04/07 01:39:05;;;;;;;;;;;9.10;99.90;;;;;;5022342;28;19996;-75
2022/04/07 01:41:31;;;;;;;;;;;9.10;99.90;;;;;;5018159;28;19933;-76
2022/04/07 01:43:58;;;;;;;;;;;9.10;99.90;;;;;;5017147;28;19925;-75
2022/04/07 01:46:25;;;;;;;;;;;9.20;99.90;;;;;;5025783;28;20517;-76
2022/04/07 01:48:51;;;;;;;;;;;9.10;99.90;;;;;;5010875;28;19926;-75
2022/04/07 01:51:18;;;;;;;;;;;9.00;99.90;;;;;;4994018;28;20424;-75
2022/04/07 01:53:44;;;;;;;;;;;9.00;99.90;;;;;;5020438;28;19925;-75
2022/04/07 01:56:11;;;;;;;;;;;9.00;99.90;;;;;;5027623;28;20291;-75
2022/04/07 01:58:37;;;;;;;;;;;9.00;99.90;;;;;;5026529;28;19933;-76
2022/04/07 02:01:04;;;;;;;;;;;8.90;99.90;;;;;;5020289;28;20052;-76
2022/04/07 02:03:31;;;;;;;;;;;8.90;99.90;;;;;;5019936;28;19932;-76
2022/04/07 02:05:57;;;;;;;;;;;9.00;99.90;;;;;;5007804;28;20380;-75
2022/04/07 02:08:24;;;;;;;;;;;9.00;99.90;;;;;;5031526;28;19928;-75
2022/04/07 02:10:50;;;;;;;;;;;9.00;99.90;;;;;;5022029;28;19936;-76
2022/04/07 02:13:17;;;;;;;;;;;9.00;99.90;;;;;;5028232;28;20399;-76
2022/04/07 02:15:43;;;;;;;;;;;9.00;99.90;;;;;;5026145;28;20423;-76
2022/04/07 02:18:10;;;;;;;;;;;9.00;99.90;;;;;;5018542;28;19933;-76
2022/04/07 02:20:36;;;;;;;;;;;9.00;99.90;;;;;;5011813;28;19952;-76
2022/04/07 02:23:03;;;;;;;;;;;9.00;99.90;;;;;;5021851;28;20304;-76
2022/04/07 02:25:30;;;;;;;;;;;9.10;99.90;;;;;;5024240;28;19925;-76
2022/04/07 02:27:56;;;;;;;;;;;9.10;99.90;;;;;;5021828;28;19929;-76
2022/04/07 02:30:23;;;;;;;;;;;9.10;99.90;;;;;;5019087;28;19930;-75
2022/04/07 02:32:49;;;;;;;;;;;9.10;99.90;;;;;;5000805;28;19925;-78
2022/04/07 02:35:16;;;;;;;;;;;9.10;99.90;;;;;;5021421;28;19929;-76
2022/04/07 02:37:43;;;;;;;;;;;9.10;99.90;;;;;;5022082;28;19983;-74
2022/04/07 02:40:10;;;;;;;;;;;9.10;99.90;;;;;;5017707;28;20038;-75
2022/04/07 02:42:37;;;;;;;;;;;9.10;99.90;;;;;;5001019;28;19936;-76
2022/04/07 02:45:03;;;;;;;;;;;8.90;99.90;;;;;;5021547;28;20431;-75
2022/04/07 02:47:30;;;;;;;;;;;8.90;99.90;;;;;;5017151;28;20369;-76
2022/04/07 02:49:56;;;;;;;;;;;8.70;99.90;;;;;;5022147;28;20678;-75
2022/04/07 02:52:23;;;;;;;;;;;8.80;99.90;;;;;;5032299;28;20285;-76
2022/04/07 02:54:49;;;;;;;;;;;8.80;99.90;;;;;;5018569;28;19949;-75
2022/04/07 02:57:16;;;;;;;;;;;8.90;99.90;;;;;;5020622;28;19932;-76
2022/04/07 02:59:43;;;;;;;;;;;8.80;99.90;;;;;;5027586;28;19929;-75
2022/04/07 03:02:09;;;;;;;;;;;8.90;99.90;;;;;;5017378;28;20279;-76
2022/04/07 03:04:36;;;;;;;;;;;8.90;99.90;;;;;;5010687;28;20294;-77
2022/04/07 03:07:02;;;;;;;;;;;9.00;99.90;;;;;;5023617;28;19932;-76
2022/04/07 03:09:29;;;;;;;;;;;8.90;99.90;;;;;;5008730;28;19925;-76
2022/04/07 03:11:55;;;;;;;;;;;8.90;99.90;;;;;;5019209;28;19933;-76
2022/04/07 03:14:22;;;;;;;;;;;8.90;99.90;;;;;;5025171;28;19933;-75
2022/04/07 03:16:49;;;;;;;;;;;8.90;99.90;;;;;;5018038;28;19925;-76
2022/04/07 03:19:16;;;;;;;;;;;8.90;99.90;;;;;;5028426;28;19973;-76
2022/04/07 03:21:43;;;;;;;;;;;8.90;99.90;;;;;;5028828;28;19929;-75
2022/04/07 03:24:09;;;;;;;;;;;8.90;99.90;;;;;;5020652;28;19925;-76
2022/04/07 03:26:36;;;;;;;;;;;8.90;99.90;;;;;;5024213;28;19925;-76
2022/04/07 03:29:02;;;;;;;;;;;9.00;99.90;;;;;;5018334;28;19925;-76
2022/04/07 03:31:29;;;;;;;;;;;9.00;99.90;;;;;;5024233;28;20385;-76
2022/04/07 03:33:56;;;;;;;;;;;9.00;99.90;;;;;;5010672;28;19933;-78
2022/04/07 03:36:22;;;;;;;;;;;9.00;99.90;;;;;;5022795;28;20424;-75
2022/04/07 03:38:51;;;;;;;;;;;9.10;99.90;;;;;;5032988;28;20384;-75
2022/04/07 03:41:17;;;;;;;;;;;9.00;99.90;;;;;;5023043;28;19931;-76
2022/04/07 03:43:44;;;;;;;;;;;9.10;99.90;;;;;;5022856;28;20301;-75
2022/04/07 03:46:10;;;;;;;;;;;9.10;99.90;;;;;;5019102;28;19925;-75
2022/04/07 03:48:37;;;;;;;;;;;9.00;99.90;;;;;;5026583;28;19929;-76
2022/04/07 03:51:03;;;;;;;;;;;9.00;99.90;;;;;;5023439;28;19932;-76
2022/04/07 03:53:30;;;;;;;;;;;9.00;99.90;;;;;;5030586;28;19925;-75
2022/04/07 03:55:57;;;;;;;;;;;9.00;99.90;;;;;;5021715;28;19925;-78
2022/04/07 03:58:25;;;;;;;;;;;9.00;99.90;;;;;;4998820;28;19930;-75
2022/04/07 04:00:52;;;;;;;;;;;9.00;99.90;;;;;;5016565;28;19925;-76
2022/04/07 04:03:19;;;;;;;;;;;8.90;99.90;;;;;;5022366;28;19929;-76
2022/04/07 04:05:45;;;;;;;;;;;8.90;99.90;;;;;;5018377;28;19925;-76
2022/04/07 04:08:12;;;;;;;;;;;8.80;99.90;;;;;;5024263;28;19990;-76
2022/04/07 04:10:38;;;;;;;;;;;8.80;99.90;;;;;;5020080;28;19972;-76
2022/04/07 04:13:05;;;;;;;;;;;8.80;99.90;;;;;;5010041;28;19932;-76
2022/04/07 04:15:32;;;;;;;;;;;8.80;99.90;;;;;;5021313;28;19925;-76
2022/04/07 04:17:58;;;;;;;;;;;8.80;99.90;;;;;;5015051;28;19929;-79
2022/04/07 04:20:25;;;;;;;;;;;8.80;99.90;;;;;;5018889;28;19930;-76
2022/04/07 04:22:51;;;;;;;;;;;8.90;99.90;;;;;;5020465;28;19940;-77
2022/04/07 04:25:18;;;;;;;;;;;8.90;99.90;;;;;;4997704;28;20151;-76
2022/04/07 04:27:44;;;;;;;;;;;9.00;99.90;;;;;;5020049;28;19929;-76
2022/04/07 04:30:11;;;;;;;;;;;8.90;99.90;;;;;;5002576;28;19936;-77
2022/04/07 04:32:37;;;;;;;;;;;8.90;99.90;;;;;;5017948;28;19976;-76
2022/04/07 04:35:05;;;;;;;;;;;8.90;99.90;;;;;;5009439;28;19933;-76
2022/04/07 04:37:32;;;;;;;;;;;8.90;99.90;;;;;;5027202;28;19925;-76
2022/04/07 04:39:58;;;;;;;;;;;8.90;99.90;;;;;;5015680;28;19936;-76
2022/04/07 04:42:25;;;;;;;;;;;9.00;99.90;;;;;;5005469;28;19925;-76
2022/04/07 04:44:51;;;;;;;;;;;9.00;99.90;;;;;;5022460;28;19929;-76
2022/04/07 04:47:18;;;;;;;;;;;9.00;99.90;;;;;;5029492;28;19925;-76
2022/04/07 04:49:44;;;;;;;;;;;8.90;99.90;;;;;;5013226;28;19929;-77
2022/04/07 04:52:11;;;;;;;;;;;8.80;99.90;;;;;;5016002;28;19932;-76
2022/04/07 04:54:38;;;;;;;;;;;8.80;99.90;;;;;;5027077;28;20412;-76
2022/04/07 04:57:06;;;;;;;;;;;8.70;99.90;;;;;;5022673;28;19933;-78
2022/04/07 04:59:32;;;;;;;;;;;8.80;99.90;;;;;;5010783;28;19932;-77
2022/04/07 05:01:59;;;;;;;;;;;8.80;99.90;;;;;;5027307;28;19925;-76
2022/04/07 05:04:25;;;;;;;;;;;8.80;99.90;;;;;;5014851;28;19929;-76
2022/04/07 05:06:52;;;;;;;;;;;8.70;99.90;;;;;;5021011;28;19940;-77
2022/04/07 05:09:18;;;;;;;;;;;8.70;99.90;;;;;;5015750;28;19928;-76
2022/04/07 05:11:45;;;;;;;;;;;8.70;99.90;;;;;;5009291;28;19925;-75
2022/04/07 05:14:11;;;;;;;;;;;8.70;99.90;;;;;;5029119;28;19929;-75
2022/04/07 05:16:38;;;;;;;;;;;8.80;99.90;;;;;;5022079;28;19925;-75
2022/04/07 05:19:04;;;;;;;;;;;8.80;99.90;;;;;;5009549;28;20023;-75
2022/04/07 05:21:31;;;;;;;;;;;8.70;99.90;;;;;;5010314;28;19929;-75
2022/04/07 05:23:58;;;;;;;;;;;8.70;99.90;;;;;;5009556;28;19925;-75
2022/04/07 05:26:24;;;;;;;;;;;8.70;99.90;;;;;;5026731;28;19972;-75
2022/04/07 05:28:51;;;;;;;;;;;8.60;99.90;;;;;;5025207;28;19929;-75
2022/04/07 05:31:17;;;;;;;;;;;8.50;99.90;;;;;;5009255;28;19960;-75
2022/04/07 05:33:44;;;;;;;;;;;8.30;99.90;;;;;;5030633;28;19929;-74
2022/04/07 05:36:10;;;;;;;;;;;8.40;99.90;;;;;;5030664;28;20368;-75
2022/04/07 05:38:37;;;;;;;;;;;8.30;99.90;;;;;;5017640;28;20277;-76
2022/04/07 05:41:03;;;;;;;;;;;8.20;99.90;;;;;;5031354;28;19951;-75
2022/04/07 05:43:30;;;;;;;;;;;8.20;99.90;;;;;;5025725;28;19925;-75
2022/04/07 05:45:57;;;;;;;;;;;8.10;99.90;;;;;;5031478;28;19925;-75
2022/04/07 05:48:23;;;;;;;;;;;8.20;99.90;;;;;;5027253;28;19933;-75
2022/04/07 05:50:50;;;;;;;;;;;8.20;99.90;;;;;;5030954;28;19925;-74
2022/04/07 05:53:16;;;;;;;;;;;8.10;99.90;;;;;;5030356;28;19936;-75
2022/04/07 05:55:43;;;;;;;;;;;8.10;99.90;;;;;;5018838;28;19932;-75
2022/04/07 05:58:09;;;;;;;;;;;8.10;99.90;;;;;;5031814;28;19925;-78
2022/04/07 06:00:37;;;;;;;;;;;8.10;99.90;;;;;;5018244;28;19941;-75
2022/04/07 06:03:03;;;;;;;;;;;8.00;99.90;;;;;;5030748;28;19976;-75
2022/04/07 06:05:30;;;;;;;;;;;8.00;99.90;;;;;;5010690;28;20387;-75
2022/04/07 06:07:56;;;;;;;;;;;8.00;99.90;;;;;;5029366;28;19940;-73
2022/04/07 06:10:23;;;;;;;;;;;7.80;99.90;;;;;;5026591;28;19930;-75
2022/04/07 06:12:49;;;;;;;;;;;7.50;99.90;;;;;;5030081;28;19929;-75
2022/04/07 06:15:16;;;;;;;;;;;7.30;99.90;;;;;;5026301;28;19926;-76
2022/04/07 06:17:44;;;;;;;;;;;7.20;99.90;;;;;;5013633;28;19928;-75
2022/04/07 06:20:11;;;;;;;;;;;7.20;99.90;;;;;;5012968;28;19925;-77
2022/04/07 06:22:38;;;;;;;;;;;6.90;99.90;;;;;;5029570;28;19929;-75
2022/04/07 06:25:04;;;;;;;;;;;6.90;99.90;;;;;;5012136;28;19925;-75
2022/04/07 06:27:31;;;;;;;;;;;6.90;99.90;;;;;;5011816;28;19978;-75
2022/04/07 06:29:57;;;;;;;;;;;6.80;99.90;;;;;;5031337;28;20012;-76
2022/04/07 06:32:24;;;;;;;;;;;6.80;99.90;;;;;;5014006;28;19940;-75
2022/04/07 06:34:50;;;;;;;;;;;6.80;99.90;;;;;;5026697;28;19936;-75
2022/04/07 06:37:17;;;;;;;;;;;6.70;99.90;;;;;;5028142;28;19932;-75
2022/04/07 06:39:43;;;;;;;;;;;6.60;99.90;;;;;;5015609;28;19933;-76
2022/04/07 06:42:10;;;;;;;;;;;6.50;99.90;;;;;;5028416;28;19932;-75
2022/04/07 06:44:37;;;;;;;;;;;6.50;99.90;;;;;;5029033;28;20031;-75
2022/04/07 06:47:03;;;;;;;;;;;6.40;99.90;;;;;;5011324;28;19939;-75
2022/04/07 06:49:30;;;;;;;;;;;6.40;99.90;;;;;;5009981;28;19936;-75
2022/04/07 06:51:56;;;;;;;;;;;6.40;99.90;;;;;;5011387;28;20039;-75
2022/04/07 06:54:23;;;;;;;;;;;6.30;99.90;;;;;;5025747;28;19926;-75
2022/04/07 06:56:49;;;;;;;;;;;6.20;99.90;;;;;;5028600;28;19932;-75
2022/04/07 06:59:16;;;;;;;;;;;6.10;99.90;;;;;;5028318;28;19929;-75
2022/04/07 07:01:43;;;;;;;;;;;6.10;99.90;;;;;;5026519;28;19932;-75
2022/04/07 07:04:09;;;;;;;;;;;6.00;99.90;;;;;;5012685;28;20396;-75
2022/04/07 07:06:36;;;;;;;;;;;5.90;99.90;;;;;;5029618;28;19933;-75
2022/04/07 07:09:02;;;;;;;;;;;6.00;99.90;;;;;;5028231;28;19932;-75
2022/04/07 07:11:29;;;;;;;;;;;6.00;99.90;;;;;;5012323;28;19925;-75
2022/04/07 07:13:55;;;;;;;;;;;5.90;99.90;;;;;;5013019;28;19929;-75
2022/04/07 07:16:22;;;;;;;;;;;5.90;99.90;;;;;;5028746;28;19936;-75
2022/04/07 07:18:48;;;;;;;;;;;5.90;99.90;;;;;;5027482;28;19925;-76
2022/04/07 07:21:15;;;;;;;;;;;5.90;99.90;;;;;;5012468;28;19929;-77
2022/04/07 07:23:41;;;;;;;;;;;5.90;99.90;;;;;;5028653;28;19925;-75
2022/04/07 07:26:08;;;;;;;;;;;5.90;99.90;;;;;;5010972;28;19925;-75
2022/04/07 07:28:35;;;;;;;;;;;5.90;99.90;;;;;;5027240;28;20021;-76
2022/04/07 07:31:02;;;;;;;;;;;5.80;99.90;;;;;;5010543;28;19925;-76
2022/04/07 07:33:28;;;;;;;;;;;5.80;99.90;;;;;;5013564;28;19929;-77
2022/04/07 07:35:55;;;;;;;;;;;5.90;99.90;;;;;;5027014;28;19925;-76
2022/04/07 07:38:22;;;;;;;;;;;6.00;99.90;;;;;;5028240;28;19925;-76
2022/04/07 07:40:49;;;;;;;;;;;6.00;99.90;;;;;;5026585;28;19925;-76
2022/04/07 07:43:15;;;;;;;;;;;6.00;99.90;;;;;;5024520;28;19929;-79
2022/04/07 07:45:42;;;;;;;;;;;6.10;99.90;;;;;;5027431;28;19931;-76
2022/04/07 07:48:08;;;;;;;;;;;6.20;99.90;;;;;;5011641;28;19925;-76
2022/04/07 07:50:35;;;;;;;;;;;6.30;99.90;;;;;;5027445;28;19936;-76
2022/04/07 07:53:01;;;;;;;;;;;6.30;99.90;;;;;;5012482;28;19925;-76
2022/04/07 07:55:28;;;;;;;;;;;6.20;99.90;;;;;;5026771;28;19925;-77
2022/04/07 07:57:54;;;;;;;;;;;6.30;99.90;;;;;;5027773;28;20327;-76
2022/04/07 08:00:23;;;;;;;;;;;6.20;99.90;;;;;;5006375;28;19933;-76
2022/04/07 08:02:50;;;;;;;;;;;6.30;99.90;;;;;;5013951;28;19991;-76
2022/04/07 08:05:17;;;;;;;;;;;6.20;99.90;;;;;;5020794;28;19936;-78
2022/04/07 08:07:43;;;;;;;;;;;6.20;99.90;;;;;;5006780;28;20284;-76
2022/04/07 08:10:10;;;;;;;;;;;6.20;99.90;;;;;;5027532;28;20382;-79
2022/04/07 08:12:36;;;;;;;;;;;6.30;99.90;;;;;;5022082;28;19936;-76
2022/04/07 08:15:03;;;;;;;;;;;6.30;99.90;;;;;;5023143;28;19929;-76
2022/04/07 08:17:30;;;;;;;;;;;6.20;99.90;;;;;;5018444;28;19936;-76
2022/04/07 08:19:56;;;;;;;;;;;6.20;99.90;;;;;;5025733;28;19929;-76
2022/04/07 08:22:23;;;;;;;;;;;6.30;99.90;;;;;;5012888;28;19932;-76
2022/04/07 08:24:49;;;;;;;;;;;6.30;99.90;;;;;;5025870;28;19939;-76
2022/04/07 08:27:16;;;;;;;;;;;6.40;99.90;;;;;;5026277;28;19925;-77
2022/04/07 08:29:43;;;;;;;;;;;6.30;99.90;;;;;;5020190;28;20004;-76
2022/04/07 08:32:09;;;;;;;;;;;6.40;99.90;;;;;;5004501;28;19926;-76
2022/04/07 08:34:36;;;;;;;;;;;6.40;99.90;;;;;;5011601;28;19932;-75
2022/04/07 08:37:02;;;;;;;;;;;6.40;99.90;;;;;;5025044;28;19929;-76
2022/04/07 08:39:29;;;;;;;;;;;6.40;99.90;;;;;;5020790;28;19929;-76
2022/04/07 08:41:56;;;;;;;;;;;6.40;99.90;;;;;;5013050;28;20377;-76
2022/04/07 08:44:24;;;;;;;;;;;6.30;99.90;;;;;;4999174;28;19929;-79
2022/04/07 08:46:51;;;;;;;;;;;6.40;99.90;;;;;;5026036;28;20015;-76
2022/04/07 08:49:17;;;;;;;;;;;6.40;99.90;;;;;;5013684;28;20630;-76
2022/04/07 08:51:44;;;;;;;;;;;6.50;99.90;;;;;;5021937;28;19925;-76
2022/04/07 08:54:12;;;;;;;;;;;6.60;99.90;;;;;;5015200;28;19933;-76
2022/04/07 08:56:39;;;;;;;;;;;6.80;99.90;;;;;;5004548;28;19955;-76
2022/04/07 08:59:05;;;;;;;;;;;7.10;99.90;;;;;;4991601;28;19933;-76
2022/04/07 09:01:32;;;;;;;;;;;7.40;99.90;;;;;;5003162;28;19940;-78
2022/04/07 09:03:58;;;;;;;;;;;7.60;99.90;;;;;;5020794;28;19929;-76
2022/04/07 09:06:25;;;;;;;;;;;7.90;99.90;;;;;;5014336;28;19933;-79
2022/04/07 09:08:52;;;;;;;;;;;8.10;99.90;;;;;;5016794;28;19965;-76
2022/04/07 09:11:18;;;;;;;;;;;8.30;99.90;;;;;;5026275;28;19929;-76
2022/04/07 09:13:46;;;;;;;;;;;8.50;99.90;;;;;;4998820;28;20016;-75
2022/04/07 09:16:13;;;;;;;;;;;8.60;99.90;;;;;;5007063;28;20015;-76
2022/04/07 09:18:39;;;;;;;;;;;8.70;99.90;;;;;;5006141;28;19968;-76
2022/04/07 09:21:06;;;;;;;;;;;8.90;99.90;;;;;;5007148;28;19925;-76
2022/04/07 09:23:33;;;;;;;;;;;9.00;99.90;;;;;;5009918;28;19932;-77
2022/04/07 09:26:00;;;;;;;;;;;9.10;99.90;;;;;;5012639;28;19929;-76
2022/04/07 09:28:27;;;;;;;;;;;9.10;99.90;;;;;;5019620;28;19932;-79
2022/04/07 09:30:53;;;;;;;;;;;9.20;99.90;;;;;;5012063;28;19929;-77
2022/04/07 09:33:20;;;;;;;;;;;9.30;99.90;;;;;;5024530;28;19936;-76
2022/04/07 09:35:46;;;;;;;;;;;9.40;99.90;;;;;;5013413;28;20772;-76
2022/04/07 09:38:13;;;;;;;;;;;9.40;99.90;;;;;;5018869;28;20599;-76
2022/04/07 09:40:40;;;;;;;;;;;9.40;99.90;;;;;;5010455;28;19931;-77
2022/04/07 09:43:07;;;;;;;;;;;9.50;99.90;;;;;;5021913;28;19930;-78
2022/04/07 09:45:34;;;;;;;;;;;9.40;99.90;;;;;;5021516;28;19929;-77
2022/04/07 09:48:00;;;;;;;;;;;9.30;99.90;;;;;;5009551;28;19929;-76
2022/04/07 09:50:29;;;;;;;;;;;9.40;99.90;;;;;;5000637;28;19940;-79
2022/04/07 09:52:55;;;;;;;;;;;9.40;99.90;;;;;;5006908;28;19929;-76
2022/04/07 09:55:22;;;;;;;;;;;9.50;99.90;;;;;;5027265;28;19932;-77
2022/04/07 09:57:48;;;;;;;;;;;9.40;99.90;;;;;;5020237;28;20422;-76
2022/04/07 10:00:15;;;;;;;;;;;9.40;99.90;;;;;;5015859;28;20297;-76
2022/04/07 10:02:41;;;;;;;;;;;9.40;99.90;;;;;;5023681;28;19951;-76
2022/04/07 10:05:08;;;;;;;;;;;9.40;99.90;;;;;;5004115;28;20308;-77
2022/04/07 10:07:34;;;;;;;;;;;9.40;99.90;;;;;;4997523;28;19926;-77
2022/04/07 10:10:01;;;;;;;;;;;9.40;99.90;;;;;;5014543;28;19984;-77
2022/04/07 10:12:28;;;;;;;;;;;9.40;99.90;;;;;;5027974;28;19925;-77
2022/04/07 10:14:54;;;;;;;;;;;9.40;99.90;;;;;;5012196;28;19929;-79
2022/04/07 10:17:21;;;;;;;;;;;9.50;99.90;;;;;;5009293;28;20421;-78
2022/04/07 10:19:47;;;;;;;;;;;9.50;99.90;;;;;;4995969;28;19925;-79
2022/04/07 10:22:14;;;;;;;;;;;9.70;99.90;;;;;;4998689;28;19964;-79
2022/04/07 10:24:40;;;;;;;;;;;10.00;99.90;;;;;;5002369;28;19937;-79
2022/04/07 10:27:08;;;;;;;;;;;10.20;99.90;;;;;;5033081;28;19937;-81
2022/04/07 10:29:34;;;;;;;;;;;10.10;99.90;;;;;;5028565;28;19925;-80
2022/04/07 10:32:01;;;;;;;;;;;10.10;99.90;;;;;;5015205;28;19925;-80
2022/04/07 10:34:27;;;;;;;;;;;10.00;99.90;;;;;;5016356;28;20273;-80
2022/04/07 10:36:54;;;;;;;;;;;10.00;99.90;;;;;;5014376;28;19933;-80
2022/04/07 10:39:20;;;;;;;;;;;10.00;99.90;;;;;;5013245;28;20022;-80
2022/04/07 10:41:49;;;;;;;;;;;10.00;99.90;;;;;;5011424;28;19935;-80
2022/04/07 10:44:15;;;;;;;;;;;10.10;99.90;;;;;;5013681;28;19931;-81
2022/04/07 10:46:42;;;;;;;;;;;10.10;99.90;;;;;;5014868;28;19925;-80
2022/04/07 10:49:09;;;;;;;;;;;10.00;99.90;;;;;;5014289;28;19932;-79
2022/04/07 10:51:35;;;;;;;;;;;9.90;99.90;;;;;;5008085;28;20387;-79
2022/04/07 10:54:02;;;;;;;;;;;9.40;99.90;;;;;;5030850;28;20273;-79
2022/04/07 10:56:32;;;;;;;;;;;9.20;99.90;;;;;;5030341;28;20412;-79
2022/04/07 10:58:58;;;;;;;;;;;9.10;99.90;;;;;;5028041;28;20368;-79
2022/04/07 11:01:25;;;;;;;;;;;9.10;99.90;;;;;;5012221;28;19925;-79
2022/04/07 11:03:51;;;;;;;;;;;9.00;99.90;;;;;;5016263;28;19929;-80
2022/04/07 11:06:18;;;;;;;;;;;8.90;99.90;;;;;;5016503;28;19925;-79
2022/04/07 11:08:44;;;;;;;;;;;9.00;99.90;;;;;;5027923;28;20011;-79
2022/04/07 11:11:11;;;;;;;;;;;9.10;99.90;;;;;;5018550;28;19925;-78
2022/04/07 11:13:38;;;;;;;;;;;9.20;99.90;;;;;;5010646;28;19925;-76
2022/04/07 11:16:04;;;;;;;;;;;9.30;99.90;;;;;;5021214;28;19925;-77
2022/04/07 11:18:31;;;;;;;;;;;9.20;99.90;;;;;;5017369;28;19929;-77
2022/04/07 11:20:57;;;;;;;;;;;8.90;99.90;;;;;;5003147;28;19960;-78
2022/04/07 11:23:24;;;;;;;;;;;8.90;99.90;;;;;;5028960;28;20392;-78
2022/04/07 11:25:50;;;;;;;;;;;9.00;99.90;;;;;;5021526;28;20399;-77
2022/04/07 11:28:17;;;;;;;;;;;8.90;99.90;;;;;;5027451;28;19931;-77
2022/04/07 11:30:44;;;;;;;;;;;8.90;99.90;;;;;;5022030;28;20012;-76
2022/04/07 11:33:10;;;;;;;;;;;8.70;99.90;;;;;;5027213;28;19925;-76
2022/04/07 11:35:37;;;;;;;;;;;8.60;99.90;;;;;;5009444;28;19936;-78
2022/04/07 11:38:03;;;;;;;;;;;8.50;99.90;;;;;;5025791;28;19933;-76
2022/04/07 11:40:30;;;;;;;;;;;8.40;99.90;;;;;;5017553;28;20399;-76
2022/04/07 11:42:57;;;;;;;;;;;8.30;99.90;;;;;;5004327;28;19929;-76
2022/04/07 11:45:23;;;;;;;;;;;8.30;99.90;;;;;;5017034;28;20369;-76
2022/04/07 11:47:50;;;;;;;;;;;8.40;99.90;;;;;;5027060;28;19925;-76
2022/04/07 11:50:16;;;;;;;;;;;8.70;99.90;;;;;;5028617;28;19929;-77
2022/04/07 11:52:43;;;;;;;;;;;8.90;99.90;;;;;;5018442;28;20365;-76
2022/04/07 11:55:09;;;;;;;;;;;9.10;99.90;;;;;;5022862;28;20377;-77
2022/04/07 11:57:36;;;;;;;;;;;9.30;99.90;;;;;;5024155;28;19940;-77
2022/04/07 12:00:02;;;;;;;;;;;9.50;99.90;;;;;;5028756;28;20673;-76
2022/04/07 12:02:29;;;;;;;;;;;9.60;99.90;;;;;;5031972;28;20088;-77
2022/04/07 12:04:56;;;;;;;;;;;9.90;99.90;;;;;;5022219;28;20023;-78
2022/04/07 12:07:23;;;;;;;;;;;10.00;99.90;;;;;;5023062;28;20607;-77
2022/04/07 12:09:50;;;;;;;;;;;10.00;99.90;;;;;;5025957;28;19925;-77
2022/04/07 12:12:17;;;;;;;;;;;9.80;99.90;;;;;;5020385;28;19929;-76
2022/04/07 12:14:43;;;;;;;;;;;9.60;99.90;;;;;;5022730;28;19936;-77
2022/04/07 12:17:10;;;;;;;;;;;9.50;99.90;;;;;;4998928;28;19926;-76
2022/04/07 12:19:36;;;;;;;;;;;9.50;99.90;;;;;;5024484;28;19984;-78
2022/04/07 12:22:03;;;;;;;;;;;9.50;99.90;;;;;;5000034;28;19926;-77
2022/04/07 12:24:29;;;;;;;;;;;9.60;99.90;;;;;;5022379;28;20636;-77
2022/04/07 12:26:57;;;;;;;;;;;9.60;99.90;;;;;;5019644;28;19937;-77
2022/04/07 12:29:23;;;;;;;;;;;9.70;99.90;;;;;;5012114;28;19929;-77
2022/04/07 12:31:50;;;;;;;;;;;9.80;99.90;;;;;;5003917;28;19928;-77
2022/04/07 12:34:19;;;;;;;;;;;10.00;99.90;;;;;;5012945;28;20030;-77
2022/04/07 12:36:45;;;;;;;;;;;10.10;99.90;;;;;;5025762;28;19933;-77
2022/04/07 12:39:15;;;;;;;;;;;10.30;99.90;;;;;;5002292;28;20385;-77
2022/04/07 12:41:41;;;;;;;;;;;10.30;99.90;;;;;;4999866;28;19933;-79
2022/04/07 12:44:08;;;;;;;;;;;10.40;99.90;;;;;;5013059;28;19929;-77
2022/04/07 12:46:35;;;;;;;;;;;10.40;99.90;;;;;;5012677;28;19984;-77
2022/04/07 12:49:02;;;;;;;;;;;10.40;99.90;;;;;;5015337;28;19932;-78
2022/04/07 12:51:29;;;;;;;;;;;10.20;99.90;;;;;;5001716;28;19948;-77
2022/04/07 12:53:56;;;;;;;;;;;10.00;99.90;;;;;;5006953;28;19934;-78
2022/04/07 12:56:25;;;;;;;;;;;10.00;99.90;;;;;;5028536;28;19952;-78
2022/04/07 12:58:51;;;;;;;;;;;9.90;99.90;;;;;;5010558;28;19925;-77
2022/04/07 13:01:18;;;;;;;;;;;9.60;99.90;;;;;;5010459;28;19931;-77
2022/04/07 13:03:44;;;;;;;;;;;8.80;99.90;;;;;;5004516;28;19987;-79
2022/04/07 13:06:12;;;;;;;;;;;8.80;99.90;;;;;;5019012;28;19925;-76
2022/04/07 13:08:38;;;;;;;;;;;8.80;99.90;;;;;;5003318;28;20301;-78
2022/04/07 13:11:05;;;;;;;;;;;8.70;99.90;;;;;;5002989;28;19936;-76
2022/04/07 13:13:31;;;;;;;;;;;8.50;99.90;;;;;;5007806;28;21169;-77
2022/04/07 13:15:58;;;;;;;;;;;8.40;99.90;;;;;;5024388;28;19932;-77
2022/04/07 13:18:24;;;;;;;;;;;8.10;99.90;;;;;;5021625;28;19936;-77
2022/04/07 13:20:51;;;;;;;;;;;8.00;99.90;;;;;;5016500;28;19925;-77
2022/04/07 13:23:18;;;;;;;;;;;7.80;99.90;;;;;;5023281;28;19933;-77
2022/04/07 13:25:44;;;;;;;;;;;7.80;99.90;;;;;;5013227;28;19926;-78
2022/04/07 13:28:11;;;;;;;;;;;7.80;99.90;;;;;;5006440;28;19925;-77
2022/04/07 13:30:37;;;;;;;;;;;8.00;99.90;;;;;;5023622;28;19929;-77
2022/04/07 13:33:04;;;;;;;;;;;8.10;99.90;;;;;;5015292;28;19932;-77
2022/04/07 13:35:30;;;;;;;;;;;8.30;99.90;;;;;;5017139;28;20544;-77
2022/04/07 13:37:58;;;;;;;;;;;8.30;99.90;;;;;;5022315;28;20358;-77
2022/04/07 13:40:25;;;;;;;;;;;8.30;99.90;;;;;;5020218;28;19925;-77
2022/04/07 13:42:51;;;;;;;;;;;8.30;99.90;;;;;;5022812;28;20368;-77
2022/04/07 13:45:18;;;;;;;;;;;8.30;99.90;;;;;;5016360;28;20012;-77
2022/04/07 13:47:45;;;;;;;;;;;8.50;99.90;;;;;;5025381;28;19926;-77
2022/04/07 13:50:11;;;;;;;;;;;8.70;99.90;;;;;;5016428;28;19930;-77
2022/04/07 13:52:38;;;;;;;;;;;9.00;99.90;;;;;;5025711;28;19976;-78
2022/04/07 13:55:04;;;;;;;;;;;9.10;99.90;;;;;;5029255;28;19945;-77
2022/04/07 13:57:31;;;;;;;;;;;8.90;99.90;;;;;;5026804;28;20386;-77
2022/04/07 13:59:57;;;;;;;;;;;8.70;99.90;;;;;;5023085;28;20299;-79
2022/04/07 14:02:24;;;;;;;;;;;8.40;99.90;;;;;;5025244;28;20009;-77
2022/04/07 14:04:51;;;;;;;;;;;8.20;99.90;;;;;;5012395;28;19929;-79
2022/04/07 14:07:18;;;;;;;;;;;7.80;99.90;;;;;;5022017;28;19933;-77
2022/04/07 14:09:45;;;;;;;;;;;7.70;99.90;;;;;;5026497;28;19932;-77
2022/04/07 14:12:11;;;;;;;;;;;7.60;99.90;;;;;;5015915;28;20466;-77
2022/04/07 14:14:38;;;;;;;;;;;7.60;99.90;;;;;;5022166;28;19940;-77
2022/04/07 14:17:04;;;;;;;;;;;7.40;99.90;;;;;;5011203;28;19926;-77
2022/04/07 14:19:31;;;;;;;;;;;7.20;99.90;;;;;;5027849;28;20438;-77
2022/04/07 14:21:58;;;;;;;;;;;7.10;99.90;;;;;;5021652;28;19933;-77
2022/04/07 14:24:24;;;;;;;;;;;7.10;99.90;;;;;;5010592;28;20401;-77